Time;durP1;ratioP1;P1;durP2;ratioP2;P2;SDS_P1;SDS_P2;PMS_P1;PMS_P2;Temp;Humidity;BMP_temperature;BMP_pressure;BME280_temperature;BME280_humidity;BME280_pressure;Samples;Min_cycle;Max_cycle;Signal;HPM_P1;HPM_P2
2024/01/02 00:00:35;;;;;;;11.63;3.60;;;6.10;99.90;;;;;;5012340;28;20042;-45
2024/01/02 00:03:02;;;;;;;9.90;3.42;;;6.10;99.90;;;;;;5008195;28;20049;-50
2024/01/02 00:05:30;;;;;;;6.90;3.65;;;6.10;99.90;;;;;;5014648;28;20498;-50
2024/01/02 00:07:57;;;;;;;7.07;3.20;;;6.10;99.90;;;;;;5009878;28;20129;-47
2024/01/02 00:10:24;;;;;;;11.45;3.58;;;6.10;99.90;;;;;;5012996;28;20050;-47
2024/01/02 00:12:51;;;;;;;8.73;4.10;;;6.00;99.90;;;;;;5016226;28;20426;-47
2024/01/02 00:15:18;;;;;;;7.65;3.33;;;6.00;99.90;;;;;;5010664;28;20119;-48
2024/01/02 00:17:45;;;;;;;13.38;3.08;;;6.00;99.90;;;;;;5014568;28;20049;-45
2024/01/02 00:20:13;;;;;;;10.25;4.13;;;6.00;99.90;;;;;;5015544;28;20060;-46
2024/01/02 00:22:40;;;;;;;10.18;3.58;;;6.00;99.90;;;;;;5016208;28;20521;-48
2024/01/02 00:25:07;;;;;;;8.45;3.22;;;5.90;99.90;;;;;;5018317;28;20135;-45
2024/01/02 00:27:34;;;;;;;10.77;3.17;;;6.00;99.90;;;;;;5017652;28;20057;-47
2024/01/02 00:30:01;;;;;;;6.97;3.17;;;5.90;99.90;;;;;;5008484;28;20444;-50
2024/01/02 00:32:28;;;;;;;8.98;3.10;;;5.90;99.90;;;;;;5014480;28;20128;-49
2024/01/02 00:34:57;;;;;;;8.07;3.17;;;5.80;99.90;;;;;;5014115;28;20141;-47
2024/01/02 00:37:24;;;;;;;11.05;3.63;;;5.80;99.90;;;;;;5014330;28;20137;-45
2024/01/02 00:39:51;;;;;;;9.88;3.90;;;5.80;99.90;;;;;;5014343;28;20065;-47
2024/01/02 00:42:18;;;;;;;8.98;3.17;;;5.90;99.90;;;;;;5006209;28;20073;-45
2024/01/02 00:44:46;;;;;;;10.40;3.63;;;5.80;99.90;;;;;;5013969;28;20038;-47
2024/01/02 00:47:13;;;;;;;8.35;3.10;;;5.80;99.90;;;;;;5014769;28;20038;-46
2024/01/02 00:49:40;;;;;;;11.95;3.58;;;5.70;99.90;;;;;;5011227;28;20125;-50
2024/01/02 00:52:07;;;;;;;8.38;3.40;;;5.70;99.90;;;;;;5017062;28;20068;-45
2024/01/02 00:54:34;;;;;;;10.50;3.13;;;5.70;99.90;;;;;;5010710;28;20507;-44
2024/01/02 00:57:01;;;;;;;9.02;3.10;;;5.70;99.90;;;;;;4997516;28;20574;-46
2024/01/02 00:59:28;;;;;;;9.48;3.03;;;5.80;99.90;;;;;;5012671;28;20160;-47
2024/01/02 01:01:55;;;;;;;8.95;2.95;;;5.70;99.90;;;;;;5010912;28;20042;-45
2024/01/02 01:04:23;;;;;;;9.15;2.90;;;5.80;99.90;;;;;;5011912;28;20236;-47
2024/01/02 01:06:50;;;;;;;9.18;3.10;;;5.80;99.90;;;;;;5015505;28;20538;-46
2024/01/02 01:09:17;;;;;;;8.82;3.13;;;5.80;99.90;;;;;;5012128;28;20127;-44
2024/01/02 01:11:44;;;;;;;7.82;2.83;;;5.80;99.90;;;;;;5015547;28;20901;-46
2024/01/02 01:14:10;;;;;;;7.15;3.20;;;5.70;99.90;;;;;;5011348;28;20530;-44
2024/01/02 01:16:37;;;;;;;11.80;3.35;;;5.70;99.90;;;;;;5009192;28;20054;-44
2024/01/02 01:19:04;;;;;;;11.88;3.47;;;5.70;99.90;;;;;;5015371;28;20068;-47
2024/01/02 01:21:31;;;;;;;9.27;3.25;;;5.70;99.90;;;;;;5015027;28;20049;-50
2024/01/02 01:23:58;;;;;;;12.13;3.22;;;5.70;99.90;;;;;;5012269;28;20038;-46
2024/01/02 01:26:25;;;;;;;7.55;2.97;;;5.80;99.90;;;;;;5014519;28;20451;-45
2024/01/02 01:28:52;;;;;;;9.57;3.08;;;5.80;99.90;;;;;;5011234;28;20391;-45
2024/01/02 01:31:19;;;;;;;6.57;3.13;;;5.80;99.90;;;;;;5013788;28;20049;-46
2024/01/02 01:33:46;;;;;;;8.52;2.80;;;5.80;99.90;;;;;;5012915;28;20118;-45
2024/01/02 01:36:17;;;;;;;10.63;3.17;;;5.90;99.90;;;;;;5011137;28;20053;-43
2024/01/02 01:38:44;;;;;;;4.68;2.65;;;5.90;99.90;;;;;;5016651;28;20497;-47
2024/01/02 01:41:11;;;;;;;8.07;3.22;;;5.80;99.90;;;;;;5013496;28;20092;-49
2024/01/02 01:43:38;;;;;;;8.52;2.90;;;5.80;99.90;;;;;;5013377;28;20049;-48
2024/01/02 01:46:06;;;;;;;8.75;2.83;;;5.90;99.90;;;;;;5016327;28;20045;-48
2024/01/02 01:48:34;;;;;;;6.72;3.00;;;5.80;99.90;;;;;;5011280;28;20042;-46
2024/01/02 01:51:01;;;;;;;11.07;3.20;;;5.80;99.90;;;;;;5014862;28;20059;-46
2024/01/02 01:53:29;;;;;;;9.88;3.00;;;5.90;99.90;;;;;;5014668;28;20168;-50
2024/01/02 01:55:58;;;;;;;9.07;2.70;;;5.90;99.90;;;;;;5017091;28;20119;-43
2024/01/02 01:58:26;;;;;;;9.25;3.15;;;5.90;99.90;;;;;;5011975;28;20107;-47
2024/01/02 02:00:53;;;;;;;6.70;2.55;;;6.00;99.90;;;;;;5011476;28;20045;-44
2024/01/02 02:03:22;;;;;;;7.68;2.90;;;6.00;99.90;;;;;;5011543;28;20049;-45
2024/01/02 02:05:50;;;;;;;8.10;2.80;;;6.00;99.90;;;;;;5012551;28;20053;-50
2024/01/02 02:08:17;;;;;;;6.45;2.72;;;6.00;99.90;;;;;;5017791;28;20049;-45
2024/01/02 02:10:44;;;;;;;10.75;3.00;;;6.00;99.90;;;;;;5009672;28;20054;-46
2024/01/02 02:13:11;;;;;;;12.77;2.70;;;6.00;99.90;;;;;;5013153;28;20060;-46
2024/01/02 02:15:40;;;;;;;9.38;2.70;;;6.00;99.90;;;;;;5008536;28;20117;-45
2024/01/02 02:18:08;;;;;;;7.10;2.83;;;6.00;99.90;;;;;;5015544;28;20042;-45
2024/01/02 02:20:36;;;;;;;8.55;3.03;;;6.10;99.90;;;;;;5015211;28;20125;-48
2024/01/02 02:23:03;;;;;;;10.05;2.53;;;6.10;99.90;;;;;;5011172;28;20042;-46
2024/01/02 02:25:30;;;;;;;10.90;2.95;;;6.10;99.90;;;;;;5012365;28;20499;-45
2024/01/02 02:27:57;;;;;;;9.23;2.80;;;6.10;99.90;;;;;;5004103;28;20053;-45
2024/01/02 02:30:24;;;;;;;9.20;3.08;;;6.10;99.90;;;;;;5012947;28;20070;-46
2024/01/02 02:32:51;;;;;;;6.72;2.40;;;6.10;99.90;;;;;;5040707;28;20048;-50
2024/01/02 02:35:18;;;;;;;5.40;2.60;;;6.10;99.90;;;;;;5009894;28;20256;-47
2024/01/02 02:37:46;;;;;;;6.03;2.35;;;6.10;99.90;;;;;;5014416;28;20053;-47
2024/01/02 02:40:13;;;;;;;8.02;2.50;;;6.10;99.90;;;;;;5013861;28;20048;-45
2024/01/02 02:42:39;;;;;;;5.50;2.42;;;6.10;99.90;;;;;;5012983;28;20052;-45
2024/01/02 02:45:07;;;;;;;7.88;2.40;;;6.10;99.90;;;;;;5014440;28;20037;-47
2024/01/02 02:47:34;;;;;;;6.57;2.53;;;6.10;99.90;;;;;;5013699;28;20058;-45
2024/01/02 02:50:01;;;;;;;11.27;3.10;;;6.10;99.90;;;;;;5008303;28;20458;-47
2024/01/02 02:52:28;;;;;;;8.40;2.78;;;6.00;99.90;;;;;;5013954;28;20048;-47
2024/01/02 02:54:55;;;;;;;3.67;1.92;;;6.00;99.90;;;;;;5015906;28;20081;-45
2024/01/02 02:57:22;;;;;;;7.35;2.65;;;6.00;99.90;;;;;;5008147;28;20044;-46
2024/01/02 02:59:49;;;;;;;5.75;2.33;;;6.00;99.90;;;;;;5017867;28;20077;-46
2024/01/02 03:02:16;;;;;;;5.90;2.60;;;6.10;99.90;;;;;;5013820;28;20580;-48
2024/01/02 03:04:44;;;;;;;3.65;2.10;;;6.00;99.90;;;;;;5016579;28;20042;-48
2024/01/02 03:07:11;;;;;;;4.63;2.20;;;6.00;99.90;;;;;;5018205;28;20049;-45
2024/01/02 03:09:43;;;;;;;7.03;2.20;;;6.00;99.90;;;;;;5016379;28;20042;-44
2024/01/02 03:12:12;;;;;;;6.45;2.40;;;6.00;99.90;;;;;;5019856;28;20119;-45
2024/01/02 03:14:39;;;;;;;4.53;2.28;;;6.00;99.90;;;;;;5011387;28;20182;-49
2024/01/02 03:17:06;;;;;;;5.03;2.03;;;6.00;99.90;;;;;;5017677;28;20144;-50
2024/01/02 03:19:33;;;;;;;5.80;2.33;;;6.00;99.90;;;;;;5017169;28;20041;-47
2024/01/02 03:22:00;;;;;;;6.35;2.35;;;6.00;99.90;;;;;;5020249;28;20173;-45
2024/01/02 03:24:27;;;;;;;9.00;2.72;;;6.00;99.90;;;;;;5015430;28;20065;-47
2024/01/02 03:26:54;;;;;;;8.73;2.35;;;5.90;99.90;;;;;;5013413;28;20046;-46
2024/01/02 03:29:21;;;;;;;3.97;2.13;;;5.90;99.90;;;;;;5014398;28;20042;-46
2024/01/02 03:31:48;;;;;;;6.40;2.33;;;5.90;99.90;;;;;;5015253;28;20128;-45
2024/01/02 03:34:15;;;;;;;7.82;2.00;;;5.90;99.90;;;;;;5020398;28;20487;-44
2024/01/02 03:36:42;;;;;;;9.32;2.42;;;5.90;99.90;;;;;;5011137;28;20041;-48
2024/01/02 03:39:09;;;;;;;5.38;2.10;;;5.90;99.90;;;;;;5019782;28;20492;-46
2024/01/02 03:41:35;;;;;;;5.22;2.30;;;6.00;99.90;;;;;;5011992;28;20531;-47
2024/01/02 03:44:03;;;;;;;6.25;2.17;;;5.90;99.90;;;;;;5017484;28;20036;-44
2024/01/02 03:46:30;;;;;;;4.47;2.53;;;5.90;99.90;;;;;;5018705;28;20906;-48
2024/01/02 03:48:57;;;;;;;11.23;2.60;;;5.90;99.90;;;;;;5016916;28;20124;-47
2024/01/02 03:51:24;;;;;;;6.85;2.30;;;5.90;99.90;;;;;;5013938;28;20108;-44
2024/01/02 03:53:51;;;;;;;5.82;2.60;;;5.80;99.90;;;;;;5018161;28;20080;-48
2024/01/02 03:56:17;;;;;;;6.18;2.30;;;5.80;99.90;;;;;;5014930;28;20593;-47
2024/01/02 03:58:44;;;;;;;7.97;2.20;;;5.80;99.90;;;;;;5015698;28;20053;-47
2024/01/02 04:01:11;;;;;;;6.70;2.13;;;5.80;99.90;;;;;;5013956;28;20330;-45
2024/01/02 04:03:38;;;;;;;6.57;2.10;;;5.80;99.90;;;;;;5014289;28;20050;-45
2024/01/02 04:06:05;;;;;;;8.80;2.10;;;5.80;99.90;;;;;;5018095;28;20041;-52
2024/01/02 04:08:33;;;;;;;9.57;2.40;;;5.80;99.90;;;;;;5017463;28;20578;-48
2024/01/02 04:11:00;;;;;;;5.03;2.28;;;5.90;99.90;;;;;;5015787;28;20045;-49
2024/01/02 04:13:27;;;;;;;8.05;2.38;;;5.90;99.90;;;;;;5016239;28;20050;-50
2024/01/02 04:15:53;;;;;;;4.85;2.15;;;5.80;99.90;;;;;;5011053;28;20069;-46
2024/01/02 04:18:20;;;;;;;6.85;2.40;;;5.80;99.90;;;;;;5013196;28;20111;-47
2024/01/02 04:20:48;;;;;;;6.45;2.03;;;5.80;99.90;;;;;;5019921;28;20435;-47
2024/01/02 04:23:14;;;;;;;5.40;2.25;;;5.80;99.90;;;;;;5024483;28;20137;-46
2024/01/02 04:25:41;;;;;;;7.90;2.30;;;5.80;99.90;;;;;;5025758;28;20065;-48
2024/01/02 04:28:08;;;;;;;9.23;1.90;;;5.80;99.90;;;;;;5014817;28;20069;-48
2024/01/02 04:30:35;;;;;;;5.72;2.25;;;5.80;99.90;;;;;;5017465;28;20096;-45
2024/01/02 04:33:03;;;;;;;7.20;2.15;;;5.70;99.90;;;;;;5012188;28;20048;-50
2024/01/02 04:35:30;;;;;;;9.10;1.90;;;5.70;99.90;;;;;;5011517;28;20846;-49
2024/01/02 04:37:57;;;;;;;7.00;1.92;;;5.70;99.90;;;;;;5013542;28;20049;-48
2024/01/02 04:40:24;;;;;;;6.97;1.90;;;5.70;99.90;;;;;;5013154;28;20200;-48
2024/01/02 04:42:51;;;;;;;4.88;2.20;;;5.70;99.90;;;;;;5016154;28;20662;-51
2024/01/02 04:45:18;;;;;;;8.88;2.05;;;5.70;99.90;;;;;;5004467;28;20289;-48
2024/01/02 04:47:46;;;;;;;6.93;1.83;;;5.60;99.90;;;;;;5017415;28;20046;-51
2024/01/02 04:50:13;;;;;;;10.02;2.17;;;5.50;99.90;;;;;;5013732;28;20505;-46
2024/01/02 04:52:40;;;;;;;5.78;2.17;;;5.50;99.90;;;;;;5011959;28;20046;-47
2024/01/02 04:55:07;;;;;;;8.93;2.25;;;5.50;99.90;;;;;;5014056;28;20077;-45
2024/01/02 04:57:34;;;;;;;8.07;2.22;;;5.50;99.90;;;;;;5009861;28;20071;-49
2024/01/02 05:00:01;;;;;;;6.53;2.03;;;5.50;99.90;;;;;;5015520;28;20502;-49
2024/01/02 05:02:28;;;;;;;5.57;2.17;;;5.50;99.90;;;;;;5008867;28;20046;-46
2024/01/02 05:04:55;;;;;;;6.32;1.83;;;5.50;99.90;;;;;;5017565;28;20053;-48
2024/01/02 05:07:22;;;;;;;7.90;2.53;;;5.50;99.90;;;;;;5009659;28;20116;-49
2024/01/02 05:09:49;;;;;;;5.78;2.53;;;5.50;99.90;;;;;;5015582;28;20113;-49
2024/01/02 05:12:17;;;;;;;5.88;2.03;;;5.50;99.90;;;;;;5014588;28;20045;-49
2024/01/02 05:14:44;;;;;;;7.38;2.63;;;5.50;99.90;;;;;;5011912;28;20137;-47
2024/01/02 05:17:11;;;;;;;6.65;2.40;;;5.40;99.90;;;;;;5015322;28;20434;-51
2024/01/02 05:19:38;;;;;;;4.95;2.25;;;5.40;99.90;;;;;;5016446;28;20136;-48
2024/01/02 05:22:05;;;;;;;6.47;2.40;;;5.50;99.90;;;;;;5017217;28;20033;-50
2024/01/02 05:24:32;;;;;;;8.88;2.45;;;5.40;99.90;;;;;;5010306;28;20120;-47
2024/01/02 05:26:59;;;;;;;4.68;2.17;;;5.50;99.90;;;;;;5009787;28;20500;-46
2024/01/02 05:29:26;;;;;;;5.80;2.20;;;5.40;99.90;;;;;;5007437;28;20088;-46
2024/01/02 05:31:53;;;;;;;5.60;2.05;;;5.40;99.90;;;;;;5014879;28;20049;-48
2024/01/02 05:34:20;;;;;;;7.25;2.50;;;5.30;99.90;;;;;;5017133;28;20045;-45
2024/01/02 05:36:47;;;;;;;7.68;2.20;;;5.30;99.90;;;;;;5011289;28;20045;-47
2024/01/02 05:39:14;;;;;;;6.60;2.17;;;5.40;99.90;;;;;;5016832;28;20099;-48
2024/01/02 05:41:41;;;;;;;4.80;1.88;;;5.30;99.90;;;;;;5011961;28;20128;-49
2024/01/02 05:44:08;;;;;;;5.95;2.20;;;5.40;99.90;;;;;;5014787;28;20054;-48
2024/01/02 05:46:35;;;;;;;7.18;2.10;;;5.30;99.90;;;;;;5017692;28;20053;-46
2024/01/02 05:49:02;;;;;;;5.40;1.80;;;5.20;99.90;;;;;;5011599;28;20471;-47
2024/01/02 05:51:30;;;;;;;5.93;2.63;;;5.30;99.90;;;;;;5014802;28;20050;-50
2024/01/02 05:53:57;;;;;;;5.63;2.05;;;5.20;99.90;;;;;;5010794;28;20054;-44
2024/01/02 05:56:24;;;;;;;5.10;1.90;;;5.20;99.90;;;;;;5009859;28;20522;-48
2024/01/02 05:58:51;;;;;;;6.88;2.00;;;5.20;99.90;;;;;;5007732;28;20116;-45
2024/01/02 06:01:19;;;;;;;5.97;1.98;;;5.30;99.90;;;;;;5000387;28;20137;-47
2024/01/02 06:03:45;;;;;;;6.03;1.85;;;5.20;99.90;;;;;;5002983;28;20044;-49
2024/01/02 06:06:13;;;;;;;6.65;1.80;;;5.20;99.90;;;;;;5008258;28;20081;-45
2024/01/02 06:08:42;;;;;;;3.78;1.65;;;5.20;99.90;;;;;;5013212;28;20053;-48
2024/01/02 06:11:10;;;;;;;6.20;2.20;;;5.20;99.90;;;;;;5015260;28;20060;-46
2024/01/02 06:13:37;;;;;;;4.10;2.10;;;5.20;99.90;;;;;;5014068;28;20045;-46
2024/01/02 06:16:04;;;;;;;4.35;1.90;;;5.20;99.90;;;;;;5012399;28;20119;-50
2024/01/02 06:18:31;;;;;;;4.10;1.80;;;5.20;99.90;;;;;;5011330;28;20049;-47
2024/01/02 06:21:00;;;;;;;6.78;1.83;;;5.20;99.90;;;;;;5009432;28;20041;-47
2024/01/02 06:23:28;;;;;;;5.45;2.15;;;5.20;99.90;;;;;;5008524;28;20065;-51
2024/01/02 06:25:57;;;;;;;10.50;2.30;;;5.30;99.90;;;;;;5018096;28;20041;-50
2024/01/02 06:28:24;;;;;;;6.70;2.08;;;5.30;99.90;;;;;;5008474;28;20581;-48
2024/01/02 06:30:51;;;;;;;4.65;1.80;;;5.30;99.90;;;;;;5015375;28;20608;-49
2024/01/02 06:33:18;;;;;;;3.97;1.88;;;5.30;99.90;;;;;;5015223;28;20052;-50
2024/01/02 06:35:46;;;;;;;4.18;1.80;;;5.30;99.90;;;;;;5010670;28;20053;-46
2024/01/02 06:38:13;;;;;;;5.00;1.85;;;5.30;99.90;;;;;;5005050;28;20042;-46
2024/01/02 06:40:39;;;;;;;4.95;1.70;;;5.20;99.90;;;;;;5007377;28;20056;-48
2024/01/02 06:43:06;;;;;;;7.22;2.28;;;5.30;99.90;;;;;;5010747;28;20041;-45
2024/01/02 06:45:33;;;;;;;4.80;2.00;;;5.30;99.90;;;;;;5003272;28;20073;-47
2024/01/02 06:48:00;;;;;;;4.90;1.88;;;5.20;99.90;;;;;;5015663;28;20537;-47
2024/01/02 06:50:27;;;;;;;6.25;1.98;;;5.20;99.90;;;;;;5013266;28;20033;-48
2024/01/02 06:52:54;;;;;;;5.25;2.00;;;5.30;99.90;;;;;;5012109;28;20046;-47
2024/01/02 06:55:21;;;;;;;4.32;2.20;;;5.20;99.90;;;;;;5015092;28;20458;-47
2024/01/02 06:57:49;;;;;;;6.72;2.40;;;5.20;99.90;;;;;;5011679;28;20446;-48
2024/01/02 07:00:17;;;;;;;7.35;2.15;;;5.20;99.90;;;;;;5015710;28;20052;-46
2024/01/02 07:02:44;;;;;;;5.82;1.85;;;5.30;99.90;;;;;;5009593;28;20042;-48
2024/01/02 07:05:14;;;;;;;4.63;2.13;;;5.30;99.90;;;;;;5014061;28;20051;-46
2024/01/02 07:07:43;;;;;;;5.00;1.75;;;5.40;99.90;;;;;;5007928;28;20080;-46
2024/01/02 07:10:09;;;;;;;5.85;2.28;;;5.50;99.90;;;;;;5006261;28;20101;-46
2024/01/02 07:12:36;;;;;;;6.70;2.25;;;5.40;99.90;;;;;;5008256;28;20112;-46
2024/01/02 07:15:06;;;;;;;5.38;2.20;;;5.40;99.90;;;;;;5006601;28;20068;-49
2024/01/02 07:17:33;;;;;;;5.15;1.85;;;5.40;99.90;;;;;;5002082;28;20081;-49
2024/01/02 07:20:00;;;;;;;3.35;1.77;;;5.40;99.90;;;;;;5001943;28;20038;-48
2024/01/02 07:22:28;;;;;;;6.03;2.00;;;5.50;99.90;;;;;;5005277;28;20030;-49
2024/01/02 07:24:55;;;;;;;4.68;2.08;;;5.40;99.90;;;;;;5010118;28;20049;-49
2024/01/02 07:27:22;;;;;;;4.07;1.95;;;5.40;99.90;;;;;;5010857;28;20054;-46
2024/01/02 07:29:49;;;;;;;6.22;2.40;;;5.50;99.90;;;;;;5013051;28;20112;-51
2024/01/02 07:32:16;;;;;;;4.80;1.95;;;5.50;99.90;;;;;;5006536;28;20103;-46
2024/01/02 07:34:43;;;;;;;7.15;2.05;;;5.50;99.90;;;;;;5011775;28;20068;-48
2024/01/02 07:37:11;;;;;;;4.93;2.08;;;5.50;99.90;;;;;;5006681;28;20104;-47
2024/01/02 07:39:38;;;;;;;4.63;2.10;;;5.50;99.90;;;;;;5006031;28;20108;-49
2024/01/02 07:42:06;;;;;;;3.58;1.75;;;5.50;99.90;;;;;;5013959;28;20048;-46
2024/01/02 07:44:33;;;;;;;6.38;2.17;;;5.60;99.90;;;;;;5007764;28;20598;-47
2024/01/02 07:47:00;;;;;;;7.13;2.15;;;5.60;99.90;;;;;;5008434;28;20046;-45
2024/01/02 07:49:27;;;;;;;4.80;1.95;;;5.50;99.90;;;;;;5008288;28;20052;-46
2024/01/02 07:51:54;;;;;;;5.45;2.05;;;5.50;99.90;;;;;;5009878;28;20042;-50
2024/01/02 07:54:21;;;;;;;5.32;1.80;;;5.50;99.90;;;;;;5009066;28;20104;-47
2024/01/02 07:56:48;;;;;;;5.15;1.70;;;5.60;99.90;;;;;;5008959;28;20049;-50
2024/01/02 07:59:19;;;;;;;4.22;1.90;;;5.50;99.90;;;;;;5010153;28;20053;-47
2024/01/02 08:01:49;;;;;;;6.23;2.20;;;5.60;99.90;;;;;;5008316;28;20056;-52
2024/01/02 08:04:17;;;;;;;14.82;1.95;;;5.60;99.90;;;;;;5014560;28;20034;-50
2024/01/02 08:06:44;;;;;;;3.97;1.75;;;5.50;99.90;;;;;;5013223;28;20049;-53
2024/01/02 08:09:11;;;;;;;5.45;2.13;;;5.50;99.90;;;;;;5014742;28;20049;-48
2024/01/02 08:11:38;;;;;;;3.83;1.65;;;5.60;99.90;;;;;;5010082;28;20053;-49
2024/01/02 08:14:05;;;;;;;5.32;1.75;;;5.70;99.90;;;;;;5015668;28;20509;-52
2024/01/02 08:16:32;;;;;;;7.00;2.10;;;5.60;99.90;;;;;;5009207;28;20042;-50
2024/01/02 08:19:00;;;;;;;4.93;1.80;;;5.60;99.90;;;;;;5006778;28;20038;-53
2024/01/02 08:21:28;;;;;;;6.63;1.83;;;5.60;99.90;;;;;;5012869;28;20046;-48
2024/01/02 08:23:55;;;;;;;5.47;1.90;;;5.60;99.90;;;;;;5009155;28;20042;-50
2024/01/02 08:26:22;;;;;;;4.32;1.70;;;5.70;99.90;;;;;;5009770;28;20042;-48
2024/01/02 08:28:49;;;;;;;3.13;1.70;;;5.70;99.90;;;;;;5008844;28;20514;-48
2024/01/02 08:31:16;;;;;;;3.90;1.73;;;5.70;99.90;;;;;;5009279;28;20064;-52
2024/01/02 08:33:43;;;;;;;5.78;2.10;;;5.70;99.90;;;;;;5014994;28;20042;-50
2024/01/02 08:36:12;;;;;;;5.47;1.70;;;5.70;99.90;;;;;;5012050;28;20534;-57
2024/01/02 08:38:40;;;;;;;5.07;1.98;;;5.80;99.90;;;;;;5005284;28;20042;-50
2024/01/02 08:41:08;;;;;;;6.18;2.38;;;5.80;99.90;;;;;;5006958;28;20121;-51
2024/01/02 08:43:35;;;;;;;4.57;1.55;;;5.80;99.90;;;;;;5008812;28;20487;-50
2024/01/02 08:46:02;;;;;;;4.80;1.77;;;5.90;99.90;;;;;;5010954;28;20069;-52
2024/01/02 08:48:29;;;;;;;4.05;1.70;;;5.90;99.90;;;;;;5008012;28;20038;-50
2024/01/02 08:50:56;;;;;;;7.00;1.70;;;5.90;99.90;;;;;;5000768;28;20056;-51
2024/01/02 08:53:23;;;;;;;6.10;1.80;;;6.00;99.90;;;;;;5010508;28;20069;-54
2024/01/02 08:55:50;;;;;;;4.82;1.77;;;6.00;99.90;;;;;;5008494;28;20073;-51
2024/01/02 08:58:18;;;;;;;4.43;1.40;;;6.00;99.90;;;;;;5008557;28;20612;-53
2024/01/02 09:00:45;;;;;;;5.32;2.20;;;6.10;99.90;;;;;;5008407;28;20045;-51
2024/01/02 09:03:12;;;;;;;4.32;2.30;;;6.10;99.90;;;;;;5007453;28;20050;-51
2024/01/02 09:05:40;;;;;;;6.10;2.10;;;6.10;99.90;;;;;;5008383;28;20373;-53
2024/01/02 09:08:08;;;;;;;3.92;2.00;;;6.10;99.90;;;;;;5005278;28;20042;-50
2024/01/02 09:10:35;;;;;;;5.82;1.70;;;6.20;99.90;;;;;;5006681;28;20046;-52
2024/01/02 09:13:02;;;;;;;3.45;1.40;;;6.20;99.90;;;;;;5008935;28;20581;-53
2024/01/02 09:15:30;;;;;;;7.00;2.47;;;6.20;99.90;;;;;;5021221;28;20042;-50
2024/01/02 09:17:57;;;;;;;4.85;1.60;;;6.20;99.90;;;;;;5021327;28;20050;-52
2024/01/02 09:20:24;;;;;;;5.18;1.73;;;6.20;99.90;;;;;;5017486;28;20046;-52
2024/01/02 09:22:52;;;;;;;2.92;1.35;;;6.30;99.90;;;;;;5004502;28;20056;-52
2024/01/02 09:25:25;;;;;;;12.20;5.72;;;6.30;99.90;;;;;;5008223;28;20065;-51
2024/01/02 09:27:58;;;;;;;3.15;1.40;;;6.40;99.90;;;;;;5007537;28;20046;-55
2024/01/02 09:30:25;;;;;;;6.10;1.75;;;6.40;99.90;;;;;;5005727;28;20490;-51
2024/01/02 09:32:52;;;;;;;2.95;1.55;;;6.40;99.90;;;;;;5006342;28;20058;-52
2024/01/02 09:35:19;;;;;;;4.40;1.65;;;6.50;99.90;;;;;;5008114;28;20041;-52
2024/01/02 09:37:46;;;;;;;5.45;1.67;;;6.50;99.90;;;;;;5004925;28;20440;-52
2024/01/02 09:40:41;;;;;;;3.47;1.77;;;6.50;99.90;;;;;;5005062;28;20530;-49
2024/01/02 09:43:27;;;;;;;4.50;2.05;;;6.60;99.90;;;;;;5005655;28;20525;-52
2024/01/02 09:46:10;;;;;;;5.43;1.73;;;6.60;99.90;;;;;;5006034;28;20050;-55
2024/01/02 09:48:56;;;;;;;7.25;1.60;;;6.60;99.90;;;;;;5002988;28;20208;-51
2024/01/02 09:51:35;;;;;;;5.97;2.45;;;6.60;99.90;;;;;;5005404;28;20046;-51
2024/01/02 09:54:14;;;;;;;3.22;1.60;;;6.70;99.90;;;;;;5006285;28;20050;-50
2024/01/02 09:56:45;;;;;;;3.08;1.73;;;6.70;99.90;;;;;;4999229;28;20419;-55
2024/01/02 09:59:34;;;;;;;4.43;1.90;;;6.70;99.90;;;;;;5003125;28;20049;-51
2024/01/02 10:02:26;;;;;;;5.82;1.80;;;6.80;99.90;;;;;;5003980;28;20034;-53
2024/01/02 10:05:14;;;;;;;7.90;2.15;;;6.80;99.90;;;;;;5003685;28;20164;-57
2024/01/02 10:08:17;;;;;;;2.05;1.23;;;6.90;99.90;;;;;;5006660;28;20507;-54
2024/01/02 10:11:18;;;;;;;2.78;1.50;;;6.90;99.90;;;;;;5005618;28;20113;-55
2024/01/02 10:13:56;;;;;;;2.60;1.20;;;7.10;99.90;;;;;;5006247;28;20041;-50
2024/01/02 10:16:40;;;;;;;3.10;1.67;;;7.10;99.90;;;;;;5002865;28;20050;-56
2024/01/02 10:19:23;;;;;;;5.38;1.45;;;7.10;99.90;;;;;;5005876;28;20069;-55
2024/01/02 10:21:58;;;;;;;4.28;1.30;;;7.10;99.90;;;;;;5005164;28;20099;-49
2024/01/02 10:24:46;;;;;;;2.70;1.40;;;7.10;99.90;;;;;;5006073;28;20645;-49
2024/01/02 10:27:41;;;;;;;2.85;1.40;;;7.10;99.90;;;;;;5006498;28;20038;-49
2024/01/02 10:30:11;;;;;;;3.53;1.52;;;7.20;99.90;;;;;;5001838;28;20046;-55
2024/01/02 10:32:56;;;;;;;6.65;1.30;;;7.20;99.90;;;;;;5006479;28;20038;-52
2024/01/02 10:35:29;;;;;;;2.45;1.27;;;7.30;99.90;;;;;;5006473;28;20273;-51
2024/01/02 10:38:12;;;;;;;1.92;1.10;;;7.30;99.90;;;;;;5007112;28;20046;-54
2024/01/02 10:40:46;;;;;;;1.83;1.05;;;7.40;99.90;;;;;;5004764;28;20045;-51
2024/01/02 10:43:28;;;;;;;2.53;1.35;;;7.50;99.90;;;;;;5005571;28;20125;-51
2024/01/02 10:45:57;;;;;;;3.75;1.05;;;7.60;99.90;;;;;;5001407;28;20132;-52
2024/01/02 10:48:51;;;;;;;3.25;1.00;;;7.60;99.90;;;;;;5005362;28;20038;-54
2024/01/02 10:51:41;;;;;;;3.72;1.30;;;7.60;99.90;;;;;;5002834;28;20462;-54
2024/01/02 10:54:48;;;;;;;1.42;0.90;;;7.70;99.90;;;;;;5006277;28;20034;-48
2024/01/02 10:57:25;;;;;;;2.47;1.05;;;7.80;99.90;;;;;;5006978;28;20046;-54
2024/01/02 11:00:01;;;;;;;2.58;1.20;;;7.90;99.90;;;;;;5004153;28;20496;-49
2024/01/02 11:02:35;;;;;;;1.23;0.85;;;7.90;99.90;;;;;;5005138;28;20060;-52
2024/01/02 11:05:18;;;;;;;1.70;0.90;;;8.00;99.90;;;;;;5003663;28;20492;-51
2024/01/02 11:07:50;;;;;;;1.90;1.00;;;8.00;99.90;;;;;;5006427;28;20049;-56
2024/01/02 11:10:22;;;;;;;1.25;0.80;;;8.00;99.90;;;;;;5002456;28;20457;-54
2024/01/02 11:13:01;;;;;;;2.78;1.10;;;8.20;99.90;;;;;;5003974;28;20062;-55
2024/01/02 11:15:44;;;;;;;3.00;0.90;;;8.30;99.90;;;;;;5003207;28;20163;-53
2024/01/02 11:18:13;;;;;;;2.05;1.00;;;8.30;99.90;;;;;;5006994;28;20048;-57
2024/01/02 11:21:12;;;;;;;1.05;0.77;;;8.30;99.90;;;;;;5007984;28;20069;-53
2024/01/02 11:23:40;;;;;;;1.60;0.80;;;8.30;99.90;;;;;;5007819;28;20184;-53
2024/01/02 11:26:15;;;;;;;1.40;0.70;;;8.40;99.90;;;;;;5008631;28;20582;-52
2024/01/02 11:28:46;;;;;;;2.10;0.80;;;8.50;99.90;;;;;;5012359;28;20046;-53
2024/01/02 11:31:14;;;;;;;1.30;0.80;;;8.50;99.90;;;;;;5009342;28;20041;-55
2024/01/02 11:34:18;;;;;;;2.42;0.90;;;8.50;99.90;;;;;;5015264;28;20112;-51
2024/01/02 11:37:00;;;;;;;2.80;0.90;;;8.70;99.90;;;;;;5005047;28;20380;-52
2024/01/02 11:39:51;;;;;;;2.05;0.95;;;8.60;99.90;;;;;;5008042;28;20133;-57
2024/01/02 11:42:24;;;;;;;1.75;0.85;;;8.70;99.90;;;;;;5010178;28;20045;-53
2024/01/02 11:45:01;;;;;;;1.25;0.88;;;8.70;99.90;;;;;;5008636;28;20111;-50
2024/01/02 11:48:07;;;;;;;1.10;0.70;;;8.80;99.90;;;;;;5015635;28;20694;-52
2024/01/02 11:50:47;;;;;;;1.13;0.90;;;8.80;99.90;;;;;;5009541;28;20121;-56
2024/01/02 11:53:36;;;;;;;2.97;1.05;;;8.80;99.90;;;;;;5009013;28;20189;-54
2024/01/02 11:56:06;;;;;;;1.65;0.80;;;8.90;99.90;;;;;;5010297;28;20041;-53
2024/01/02 11:58:42;;;;;;;1.48;1.00;;;8.90;99.90;;;;;;5009735;28;20394;-53
2024/01/02 12:01:35;;;;;;;1.63;0.98;;;8.90;99.90;;;;;;5010711;28;20046;-53
2024/01/02 12:04:12;;;;;;;1.52;0.90;;;9.00;99.90;;;;;;5008921;28;20538;-52
2024/01/02 12:07:03;;;;;;;1.10;0.80;;;9.00;99.90;;;;;;5006368;28;20049;-52
2024/01/02 12:09:36;;;;;;;1.55;0.95;;;9.00;99.90;;;;;;5008109;28;20045;-52
2024/01/02 12:12:37;;;;;;;0.85;0.70;;;9.10;99.90;;;;;;5009140;28;20057;-51
2024/01/02 12:15:06;;;;;;;1.52;0.95;;;9.10;99.90;;;;;;5008754;28;20426;-49
2024/01/02 12:17:46;;;;;;;1.20;0.90;;;9.20;99.90;;;;;;5008548;28;20108;-49
2024/01/02 12:20:17;;;;;;;0.93;0.70;;;9.30;99.90;;;;;;5009573;28;20045;-50
2024/01/02 12:22:44;;;;;;;1.70;0.90;;;9.30;99.90;;;;;;5009754;28;20038;-49
2024/01/02 12:25:13;;;;;;;3.67;1.70;;;9.40;99.90;;;;;;5003714;28;20438;-48
2024/01/02 12:27:45;;;;;;;1.38;0.80;;;9.50;99.90;;;;;;5006095;28;20092;-58
2024/01/02 12:30:27;;;;;;;1.80;0.88;;;9.50;99.90;;;;;;5009228;28;20044;-51
2024/01/02 12:32:53;;;;;;;2.72;1.10;;;9.60;99.90;;;;;;5006884;28;20355;-49
2024/01/02 12:35:27;;;;;;;1.55;0.80;;;9.50;99.90;;;;;;5007250;28;20060;-54
2024/01/02 12:38:23;;;;;;;1.50;0.93;;;9.40;99.90;;;;;;5010055;28;20081;-54
2024/01/02 12:40:51;;;;;;;2.38;0.70;;;9.40;99.90;;;;;;5008576;28;20057;-53
2024/01/02 12:43:20;;;;;;;1.85;0.88;;;9.40;99.90;;;;;;5006511;28;20049;-56
2024/01/02 12:45:54;;;;;;;2.20;0.80;;;9.30;99.90;;;;;;5007448;28;20092;-53
2024/01/02 12:48:24;;;;;;;2.30;0.70;;;9.30;99.90;;;;;;5008076;28;20472;-53
2024/01/02 12:50:54;;;;;;;1.45;0.98;;;9.20;99.90;;;;;;5009877;28;20045;-56
2024/01/02 12:53:25;;;;;;;1.48;0.90;;;9.20;99.90;;;;;;5009071;28;20099;-54
2024/01/02 12:55:55;;;;;;;1.23;0.73;;;9.20;99.90;;;;;;5009101;28;20111;-56
2024/01/02 12:58:22;;;;;;;1.33;0.90;;;9.10;99.90;;;;;;5008891;28;20049;-54
2024/01/02 13:00:49;;;;;;;2.42;0.95;;;9.10;99.90;;;;;;5011529;28;20111;-50
2024/01/02 13:03:17;;;;;;;1.25;0.77;;;9.00;99.90;;;;;;5009710;28;20038;-53
2024/01/02 13:05:46;;;;;;;1.17;0.80;;;9.00;99.90;;;;;;5008697;28;20046;-51
2024/01/02 13:08:20;;;;;;;1.67;0.90;;;8.90;99.90;;;;;;5008685;28;20088;-48
2024/01/02 13:10:48;;;;;;;2.67;1.02;;;8.90;99.90;;;;;;5008253;28;20034;-51